Etusivu
METAR-TAF:

METAR-TAF

Lentoasemat :

Thulen lentotukikohta

Thule, Grönlanti

Leveyspiiri: 76-32N, Pituuspiiri: 068-42W, korkeus merenpinnasta: 77 m

Tämänhetkinen sää

Tämä raportti tehtiin 4 tuntia ja 45 minuuttia sitten, kello 16.56 UTC
Tuuli 2 kn pohjoisesta/koillisesta
Lämpötila -1°C
Kosteus 86%
Ilmanpaine 1005 hPa
Näkyvyys 10 km tai enemmän
Hajanaisia pilviä 600 ft:n korkeudessa
Pilvistä 1300 ft:n korkeudessa
heikkoa lumisadetta

METAR: BGTL 241656Z 02002KT 9999 -SN SCT006 OVC013 M01/M03 A2968 RMK AO2A SLPNO WND DATA ESTMD ALSTG ESTMD $

Aika: 18:41 (21:41 UTC)

Sääennuste

Tämä raportti tehtiin 3 tuntia ja 35 minuuttia sitten, kello 18.06 UTC
Ennuste voimassa 24. päivästä klo 18 UTC - 25. päivään klo 23 UTC
Tuuli 6 kn idästä/kaakosta
Näkyvyys: 2501 m
Pilvistä 1000 ft:n korkeudessa
heikkoa lumisadetta

TAF: BGTL 241806Z 2418/2523 11006KT 6000 -SN OVC010 620208 QNH2956INS TXM01/2418Z TNM07/2509Z LAST NO AMDS AFT 2418 NEXT 2501

Säähavainnot ja -ennusteet yli 4000 lentoasemalta (METAR- ja TAF-raportit).

Käytössä olevat sääasemat on merkitty karttaan keltaisilla ja punaisilla pisteillä.

Aseta hiiri pisteen päälle nähdäksesi sääaseman nimen.

Klikkaa sitten nähdäksesi säähavainnot ja -ennusteet.

Kartan vaihtaminen: klikkaa mustalla rastilla varustettuja vihreitä pisteitä, niin voit zoomata sisään; viivalla varustettua vihreää pistettä, niin voit zoomata ulos tai vihreitä nuolia, niin pääset viereisille kartoille.


METAR-TAF: